Time;durP1;ratioP1;P1;durP2;ratioP2;P2;SDS_P1;SDS_P2;PMS_P1;PMS_P2;Temp;Humidity;BMP_temperature;BMP_pressure;BME280_temperature;BME280_humidity;BME280_pressure;Samples;Min_cycle;Max_cycle;Signal;HPM_P1;HPM_P2
2022/02/22 03:47:38;;;;;;;0.82;0.50;;;8.20;71.20;;;;;;4725128;30;20076;-80
2022/02/22 03:50:04;;;;;;;;;;;8.20;71.50;;;;;;4705350;30;20381;-80
2022/02/22 03:52:30;;;;;;;2.67;0.85;;;8.20;71.60;;;;;;4725367;30;19922;-80
2022/02/22 03:54:56;;;;;;;2.75;0.88;;;8.20;71.80;;;;;;4705044;30;20096;-81
2022/02/22 03:57:22;;;;;;;1.80;0.70;;;8.20;71.70;;;;;;4699436;30;20034;-80
2022/02/22 03:59:48;;;;;;;2.17;0.63;;;8.10;71.90;;;;;;4699257;30;20041;-80
2022/02/22 04:02:14;;;;;;;4.68;0.50;;;8.10;72.10;;;;;;4722202;30;20037;-81
2022/02/22 04:04:40;;;;;;;3.47;0.50;;;8.10;72.30;;;;;;4711365;30;20228;-81
2022/02/22 04:07:06;;;;;;;3.55;0.65;;;8.10;72.30;;;;;;4707784;30;20052;-80
2022/02/22 04:09:32;;;;;;;1.58;0.45;;;8.10;72.60;;;;;;4713726;30;20045;-80
2022/02/22 04:11:58;;;;;;;0.88;0.50;;;8.00;72.50;;;;;;4713754;30;20121;-80
2022/02/22 04:14:23;;;;;;;2.67;0.70;;;8.10;72.50;;;;;;4728165;30;20045;-80
2022/02/22 04:16:49;;;;;;;3.17;0.93;;;8.00;72.40;;;;;;4710520;30;20037;-81
2022/02/22 04:19:16;;;;;;;2.40;0.50;;;8.00;72.70;;;;;;4725302;30;20033;-81
2022/02/22 04:21:42;;;;;;;1.20;0.63;;;8.00;72.80;;;;;;4713144;30;20033;-81
2022/02/22 04:24:08;;;;;;;2.00;0.50;;;8.00;73.20;;;;;;4707892;30;20045;-80
2022/02/22 04:26:34;;;;;;;1.23;0.43;;;7.90;73.30;;;;;;4725285;30;20037;-80
2022/02/22 04:29:02;;;;;;;2.28;0.60;;;7.90;73.40;;;;;;4704299;30;20041;-81
2022/02/22 04:31:29;;;;;;;2.35;0.70;;;7.90;73.70;;;;;;4720401;30;20033;-81
2022/02/22 04:33:56;;;;;;;3.88;0.82;;;7.90;73.70;;;;;;4700637;30;20325;-82
2022/02/22 04:36:21;;;;;;;1.83;0.40;;;7.80;74.10;;;;;;4696514;30;20117;-81
2022/02/22 04:38:47;;;;;;;4.10;0.50;;;7.80;74.10;;;;;;4731999;30;20033;-81
2022/02/22 04:41:13;;;;;;;2.53;0.90;;;7.80;74.40;;;;;;4696647;30;20052;-81
2022/02/22 04:43:39;;;;;;;3.08;0.60;;;7.70;74.80;;;;;;4714400;30;20041;-81
2022/02/22 04:46:04;;;;;;;3.28;0.55;;;7.60;75.30;;;;;;4706702;30;20113;-81
2022/02/22 04:48:30;;;;;;;2.10;0.70;;;7.60;75.30;;;;;;4710437;30;20052;-82
2022/02/22 04:50:56;;;;;;;1.65;0.60;;;7.50;75.60;;;;;;4687305;30;20113;-80
2022/02/22 04:53:22;;;;;;;4.68;0.80;;;7.50;75.40;;;;;;4687735;30;20068;-81
2022/02/22 04:55:47;;;;;;;2.47;0.73;;;7.50;75.50;;;;;;4717818;30;20267;-80
2022/02/22 04:58:13;;;;;;;1.75;0.80;;;7.50;75.60;;;;;;4700211;30;20041;-80
2022/02/22 05:00:39;;;;;;;5.07;0.80;;;7.50;75.60;;;;;;4715257;30;20280;-80
2022/02/22 05:03:05;;;;;;;5.00;0.65;;;7.50;75.60;;;;;;4693094;30;20036;-81
2022/02/22 05:05:30;;;;;;;2.42;0.70;;;7.50;75.70;;;;;;4713338;30;20040;-81
2022/02/22 05:07:56;;;;;;;3.72;0.73;;;7.60;75.50;;;;;;4713635;30;20200;-80
2022/02/22 05:10:22;;;;;;;5.63;0.60;;;7.70;75.70;;;;;;4699163;30;20037;-80
2022/02/22 05:12:48;;;;;;;4.45;0.90;;;7.70;77.10;;;;;;4698648;30;20037;-81
2022/02/22 05:15:14;;;;;;;1.27;0.60;;;7.80;78.00;;;;;;4696179;30;20065;-82
2022/02/22 05:17:41;;;;;;;2.05;0.60;;;7.80;79.00;;;;;;4704655;30;20045;-81
2022/02/22 05:20:08;;;;;;;3.50;0.90;;;7.70;80.40;;;;;;4681628;30;20037;-81
2022/02/22 05:22:46;;;;;;;3.03;0.85;;;7.70;81.50;;;;;;4736457;30;20048;-80
2022/02/22 05:25:14;;;;;;;4.20;1.63;;;7.60;82.30;;;;;;4724624;30;20041;-80
2022/02/22 05:27:41;;;;;;;7.10;0.98;;;7.60;82.60;;;;;;4724640;30;20033;-80
2022/02/22 05:30:08;;;;;;;2.35;0.73;;;7.50;82.70;;;;;;4718348;30;20037;-80
2022/02/22 05:32:34;;;;;;;0.85;0.63;;;7.40;82.90;;;;;;4698281;30;20120;-81
2022/02/22 05:35:03;;;;;;;2.20;0.70;;;7.40;83.80;;;;;;4698654;30;20066;-81
2022/02/22 05:37:29;;;;;;;1.52;0.65;;;7.20;83.70;;;;;;4718564;30;20052;-79
2022/02/22 05:39:56;;;;;;;2.93;0.90;;;7.20;83.70;;;;;;4706560;30;20321;-80
2022/02/22 05:42:28;;;;;;;2.83;0.60;;;7.20;83.80;;;;;;4704583;30;20045;-80
2022/02/22 05:44:55;;;;;;;3.70;1.17;;;7.10;84.00;;;;;;4706383;30;20075;-81
2022/02/22 05:47:22;;;;;;;3.05;1.02;;;7.10;84.50;;;;;;4702292;30;20062;-81
2022/02/22 05:49:48;;;;;;;3.75;1.00;;;7.00;84.40;;;;;;4694928;30;20051;-81
2022/02/22 05:52:15;;;;;;;4.53;0.90;;;7.00;84.50;;;;;;4694950;30;20042;-81
2022/02/22 05:54:42;;;;;;;7.57;0.68;;;7.00;84.70;;;;;;4697057;30;20053;-81
2022/02/22 05:57:10;;;;;;;2.38;0.63;;;7.00;85.10;;;;;;4706397;30;20112;-79
2022/02/22 05:59:36;;;;;;;1.43;0.83;;;7.00;85.50;;;;;;4713663;30;20066;-81
2022/02/22 06:02:02;;;;;;;3.33;0.90;;;6.90;85.90;;;;;;4719895;30;20230;-81
2022/02/22 06:04:28;;;;;;;2.88;1.08;;;6.90;86.30;;;;;;4699009;30;20041;-80
2022/02/22 06:06:54;;;;;;;1.88;0.93;;;6.90;86.50;;;;;;4714349;30;20195;-80
2022/02/22 06:09:20;;;;;;;7.70;1.05;;;6.90;86.20;;;;;;4709853;30;20253;-80
2022/02/22 06:11:46;;;;;;;5.30;0.70;;;6.90;85.80;;;;;;4710244;30;20083;-80
2022/02/22 06:14:11;;;;;;;4.25;1.15;;;7.00;85.70;;;;;;4712662;30;20026;-80
2022/02/22 06:16:38;;;;;;;3.20;0.73;;;7.00;85.70;;;;;;4727937;30;20033;-80
2022/02/22 06:19:04;;;;;;;4.47;0.90;;;7.00;85.40;;;;;;4725884;30;20036;-80
2022/02/22 06:21:30;;;;;;;2.65;0.90;;;7.10;85.10;;;;;;4708453;30;20049;-80
2022/02/22 06:23:56;;;;;;;0.63;0.57;;;7.20;84.60;;;;;;4726586;30;20064;-80
2022/02/22 06:26:22;;;;;;;4.60;0.90;;;7.40;84.00;;;;;;4698108;30;20033;-80
2022/02/22 06:28:50;;;;;;;1.97;0.73;;;7.50;83.80;;;;;;4698543;30;20037;-81
2022/02/22 06:31:16;;;;;;;1.25;0.65;;;7.60;83.40;;;;;;4698094;30;20138;-80
2022/02/22 06:33:42;;;;;;;5.30;1.47;;;7.70;82.70;;;;;;4697937;30;20041;-80
2022/02/22 06:36:08;;;;;;;3.00;1.25;;;7.80;82.10;;;;;;4713357;30;20046;-79
2022/02/22 06:38:34;;;;;;;2.70;0.60;;;7.90;81.80;;;;;;4720018;30;20037;-79
2022/02/22 06:41:00;;;;;;;3.17;1.05;;;8.00;81.40;;;;;;4709118;30;20042;-80
2022/02/22 06:43:26;;;;;;;3.42;0.85;;;8.00;80.90;;;;;;4706277;30;20029;-80
2022/02/22 06:45:52;;;;;;;2.25;0.68;;;8.10;81.00;;;;;;4711038;30;20091;-80
2022/02/22 06:48:18;;;;;;;4.50;1.17;;;8.20;80.80;;;;;;4705081;30;20041;-80
2022/02/22 06:50:44;;;;;;;1.08;0.60;;;8.20;80.50;;;;;;4705682;30;20051;-80
2022/02/22 06:53:11;;;;;;;1.02;0.80;;;8.20;80.30;;;;;;4709895;30;20041;-80
2022/02/22 06:55:37;;;;;;;;;;;8.20;80.30;;;;;;4707376;30;20064;-80
2022/02/22 06:58:06;;;;;;;2.42;1.00;;;8.20;80.50;;;;;;4703992;30;19915;-80
2022/02/22 07:00:43;;;;;;;3.53;1.10;;;8.20;80.50;;;;;;4723225;30;20228;-80
2022/02/22 07:03:10;;;;;;;4.07;1.10;;;8.30;80.60;;;;;;4722076;30;20033;-80
2022/02/22 07:05:36;;;;;;;1.83;1.63;;;8.30;80.50;;;;;;4721099;30;20063;-80
2022/02/22 07:08:03;;;;;;;5.38;1.30;;;8.30;80.50;;;;;;4699940;30;20054;-80
2022/02/22 07:10:29;;;;;;;2.83;1.20;;;8.30;80.60;;;;;;4719715;30;20329;-80
2022/02/22 07:12:56;;;;;;;3.93;0.93;;;8.30;80.80;;;;;;4722697;30;20288;-80
2022/02/22 07:15:22;;;;;;;6.75;1.17;;;8.30;80.40;;;;;;4692798;30;20076;-79
2022/02/22 07:17:48;;;;;;;4.03;1.42;;;8.40;80.50;;;;;;4707360;30;20082;-80
2022/02/22 07:20:14;;;;;;;2.13;1.20;;;8.40;80.30;;;;;;4724818;30;20021;-79
2022/02/22 07:22:42;;;;;;;1.70;1.05;;;8.40;80.10;;;;;;4694959;30;20053;-80
2022/02/22 07:25:09;;;;;;;4.53;1.50;;;8.40;79.90;;;;;;4722146;30;20049;-80
2022/02/22 07:27:35;;;;;;;3.35;0.85;;;8.40;79.40;;;;;;4710612;30;20258;-80
2022/02/22 07:30:03;;;;;;;6.65;0.98;;;8.30;79.50;;;;;;4735022;30;20041;-80
2022/02/22 07:32:28;;;;;;;1.00;0.70;;;8.20;79.50;;;;;;4730137;30;20041;-79
2022/02/22 07:34:54;;;;;;;1.45;0.90;;;8.20;79.60;;;;;;4732067;30;20074;-79
2022/02/22 07:37:20;;;;;;;8.57;1.10;;;8.20;79.70;;;;;;4733991;30;20341;-79
2022/02/22 07:39:46;;;;;;;4.50;1.10;;;8.20;80.00;;;;;;4726309;30;20029;-81
2022/02/22 07:42:12;;;;;;;1.63;0.70;;;8.30;79.90;;;;;;4695774;30;20087;-81
2022/02/22 07:44:37;;;;;;;3.15;1.08;;;8.40;80.50;;;;;;4697904;30;20033;-80
2022/02/22 07:47:03;;;;;;;1.88;0.75;;;8.50;79.50;;;;;;4693610;30;20137;-80
2022/02/22 07:49:29;;;;;;;2.88;0.77;;;8.70;78.70;;;;;;4687187;30;20048;-80
2022/02/22 07:51:55;;;;;;;5.45;1.25;;;8.90;77.80;;;;;;4687887;30;20030;-80
2022/02/22 07:54:21;;;;;;;3.97;0.98;;;9.10;77.20;;;;;;4711753;30;20034;-80
2022/02/22 07:56:46;;;;;;;6.72;0.90;;;9.10;76.20;;;;;;4695588;30;20111;-80
2022/02/22 07:59:12;;;;;;;3.10;0.80;;;9.20;76.60;;;;;;4708080;30;20041;-80
2022/02/22 08:01:38;;;;;;;2.80;0.73;;;9.20;76.10;;;;;;4723393;30;20096;-80
2022/02/22 08:04:04;;;;;;;1.73;0.95;;;9.20;75.80;;;;;;4710078;30;20029;-80
2022/02/22 08:06:30;;;;;;;3.55;1.25;;;9.20;75.60;;;;;;4711298;30;20264;-80
2022/02/22 08:08:55;;;;;;;2.03;0.82;;;9.20;75.40;;;;;;4711433;30;20046;-80
2022/02/22 08:11:21;;;;;;;2.45;0.90;;;9.20;75.60;;;;;;4724406;30;20051;-80
2022/02/22 08:13:47;;;;;;;1.65;0.77;;;9.30;75.70;;;;;;4694336;30;20088;-80
2022/02/22 08:16:13;;;;;;;3.53;1.08;;;9.30;75.10;;;;;;4709940;30;20116;-79
2022/02/22 08:18:39;;;;;;;4.65;1.05;;;9.40;75.30;;;;;;4697098;30;20072;-80
2022/02/22 08:21:04;;;;;;;2.75;1.00;;;9.50;75.00;;;;;;4719676;30;20108;-80
2022/02/22 08:23:31;;;;;;;3.55;1.02;;;9.50;74.60;;;;;;4709915;30;20044;-80
2022/02/22 08:25:59;;;;;;;2.77;0.70;;;9.50;74.10;;;;;;4723491;30;20117;-80
2022/02/22 08:28:25;;;;;;;4.28;0.80;;;9.60;74.60;;;;;;4723349;30;20639;-80
2022/02/22 08:30:51;;;;;;;1.75;0.80;;;9.60;74.10;;;;;;4723492;30;20041;-80
2022/02/22 08:33:17;;;;;;;1.90;0.87;;;9.70;73.80;;;;;;4726684;30;20072;-80
2022/02/22 08:35:43;;;;;;;3.55;0.95;;;9.70;74.00;;;;;;4712564;30;20300;-80
2022/02/22 08:38:09;;;;;;;2.90;1.20;;;9.80;73.30;;;;;;4691710;30;20038;-80
2022/02/22 08:40:34;;;;;;;2.90;0.85;;;9.70;74.00;;;;;;4709464;30;20079;-80
2022/02/22 08:43:00;;;;;;;8.00;1.15;;;9.70;73.80;;;;;;4697582;30;20074;-80
2022/02/22 08:45:26;;;;;;;6.72;1.35;;;9.70;74.50;;;;;;4684700;30;20065;-80
2022/02/22 08:47:52;;;;;;;3.17;0.90;;;9.70;74.50;;;;;;4713221;30;20386;-80
2022/02/22 08:50:19;;;;;;;4.45;1.00;;;9.70;74.00;;;;;;4726221;30;20045;-80
2022/02/22 08:52:44;;;;;;;2.75;1.08;;;9.70;74.50;;;;;;4712890;30;20047;-82
2022/02/22 08:55:11;;;;;;;4.20;0.95;;;9.60;74.70;;;;;;4692313;30;20116;-79
2022/02/22 08:57:36;;;;;;;4.28;0.85;;;9.60;74.80;;;;;;4719111;30;20079;-79
2022/02/22 09:00:09;;;;;;;6.60;1.70;;;9.60;75.20;;;;;;4710016;30;20069;-80
2022/02/22 09:02:39;;;;;;;2.60;0.98;;;9.60;75.70;;;;;;4724536;30;20041;-80
2022/02/22 09:05:06;;;;;;;3.47;1.17;;;9.50;75.70;;;;;;4724326;30;20061;-80
2022/02/22 09:07:32;;;;;;;;;;;9.50;76.00;;;;;;4696287;30;20053;-80
2022/02/22 09:09:58;;;;;;;6.17;1.00;;;9.50;76.20;;;;;;4712852;30;20030;-80
2022/02/22 09:12:24;;;;;;;5.10;1.55;;;9.40;76.10;;;;;;4715143;30;20065;-80
2022/02/22 09:14:50;;;;;;;4.07;0.90;;;9.50;76.80;;;;;;4724376;30;20233;-80
2022/02/22 09:17:16;;;;;;;1.60;0.90;;;9.40;79.70;;;;;;4707407;30;20045;-81
2022/02/22 09:19:42;;;;;;;3.17;0.88;;;9.30;81.00;;;;;;4701626;30;20042;-81
2022/02/22 09:22:08;;;;;;;3.22;1.15;;;9.20;81.90;;;;;;4691698;30;20041;-81
2022/02/22 09:24:34;;;;;;;1.67;0.75;;;9.20;83.70;;;;;;4696947;30;20075;-80
2022/02/22 09:27:00;;;;;;;2.85;1.00;;;9.30;84.40;;;;;;4722541;30;20045;-80
2022/02/22 09:29:25;;;;;;;7.95;1.17;;;9.10;84.80;;;;;;4736232;30;20361;-80
2022/02/22 09:31:51;;;;;;;2.33;0.65;;;9.20;86.10;;;;;;4726345;30;20037;-80
2022/02/22 09:34:17;;;;;;;2.47;1.00;;;9.40;86.70;;;;;;4699457;30;20033;-79
2022/02/22 09:36:43;;;;;;;2.10;0.98;;;9.50;84.80;;;;;;4719353;30;20037;-80
2022/02/22 09:39:09;;;;;;;2.40;0.70;;;9.60;84.00;;;;;;4708857;30;20052;-80
2022/02/22 09:41:35;;;;;;;3.47;0.80;;;9.80;85.10;;;;;;4697802;30;20033;-80
2022/02/22 09:44:01;;;;;;;4.37;1.30;;;9.90;83.30;;;;;;4724200;30;20333;-80
2022/02/22 09:46:30;;;;;;;1.70;0.70;;;10.10;82.00;;;;;;4694574;30;20165;-79
2022/02/22 09:48:56;;;;;;;1.95;0.63;;;10.20;80.70;;;;;;4726087;30;20041;-80
2022/02/22 09:51:22;;;;;;;5.93;1.25;;;10.10;79.40;;;;;;4696313;30;20378;-79
2022/02/22 09:53:48;;;;;;;3.90;1.20;;;10.20;80.50;;;;;;4697768;30;20033;-80
2022/02/22 09:56:13;;;;;;;6.43;1.02;;;10.40;78.20;;;;;;4697471;30;20055;-82
2022/02/22 09:58:39;;;;;;;3.10;0.90;;;10.60;76.70;;;;;;4709409;30;20108;-79
2022/02/22 10:01:05;;;;;;;4.97;1.00;;;10.90;75.90;;;;;;4682797;30;20075;-80
2022/02/22 10:03:31;;;;;;;2.38;0.80;;;10.70;76.80;;;;;;4693737;30;20034;-81
2022/02/22 10:05:59;;;;;;;1.92;0.65;;;10.60;75.10;;;;;;4719936;30;20308;-82
2022/02/22 10:08:30;;;;;;;1.33;0.60;;;10.40;76.00;;;;;;4722352;30;20037;-80
2022/02/22 10:11:06;;;;;;;4.38;1.00;;;10.60;78.10;;;;;;4720606;30;20038;-80
2022/02/22 10:13:33;;;;;;;1.48;0.93;;;10.80;77.00;;;;;;4717214;30;20041;-80
2022/02/22 10:16:04;;;;;;;3.45;1.30;;;10.90;75.30;;;;;;4723660;30;20037;-80
2022/02/22 10:18:29;;;;;;;3.85;1.10;;;11.10;75.80;;;;;;4706303;30;20041;-80
2022/02/22 10:20:55;;;;;;;6.03;1.27;;;11.20;73.50;;;;;;4704350;30;20229;-80
2022/02/22 10:23:31;;;;;;;2.97;1.08;;;11.00;76.00;;;;;;4711010;30;20388;-81
2022/02/22 10:25:59;;;;;;;4.47;1.17;;;10.70;79.20;;;;;;4705430;30;20029;-82
2022/02/22 10:28:25;;;;;;;;;;;10.00;82.40;;;;;;4721639;30;20033;-81
2022/02/22 10:30:53;;;;;;;2.60;1.10;;;9.70;87.60;;;;;;4710869;30;20228;-81
2022/02/22 10:33:23;;;;;;;4.30;1.17;;;9.60;87.50;;;;;;4695453;30;20046;-81
2022/02/22 10:35:48;;;;;;;2.55;1.08;;;9.50;88.80;;;;;;4722857;30;20044;-81
2022/02/22 10:38:31;;;;;;;4.72;1.10;;;9.70;88.60;;;;;;4708240;30;20025;-80
2022/02/22 10:41:02;;;;;;;3.30;1.00;;;9.80;87.90;;;;;;4708716;30;20056;-80
2022/02/22 10:43:33;;;;;;;9.35;1.08;;;9.90;87.30;;;;;;4713758;30;20041;-80
2022/02/22 10:46:05;;;;;;;6.25;1.52;;;9.80;86.10;;;;;;4704996;30;20175;-80
2022/02/22 10:48:42;;;;;;;2.85;1.10;;;9.90;85.60;;;;;;4734152;30;20041;-79
2022/02/22 10:51:13;;;;;;;3.75;0.90;;;10.10;85.70;;;;;;4732925;30;20083;-80
2022/02/22 10:53:49;;;;;;;4.45;1.23;;;10.10;82.40;;;;;;4715619;30;20364;-81
2022/02/22 10:56:17;;;;;;;2.75;1.08;;;10.10;82.50;;;;;;4724796;30;20045;-81
2022/02/22 10:58:44;;;;;;;4.13;1.25;;;10.00;83.40;;;;;;4712364;30;20034;-81
2022/02/22 11:01:13;;;;;;;3.22;1.35;;;10.00;84.20;;;;;;4708034;30;20052;-81
2022/02/22 11:03:41;;;;;;;2.80;0.95;;;9.90;84.00;;;;;;4711623;30;20033;-82
2022/02/22 11:06:08;;;;;;;5.03;1.40;;;9.90;84.30;;;;;;4725151;30;20033;-81
2022/02/22 11:08:34;;;;;;;;;;;9.80;82.00;;;;;;4695631;30;20104;-80
2022/02/22 11:11:13;;;;;;;5.83;1.90;;;9.90;82.90;;;;;;4710106;30;19923;-80
2022/02/22 11:13:42;;;;;;;7.30;1.45;;;10.10;84.10;;;;;;4706687;30;20376;-81
2022/02/22 11:16:15;;;;;;;4.90;1.70;;;10.40;81.70;;;;;;4709260;30;20041;-81
2022/02/22 11:18:45;;;;;;;4.00;1.10;;;10.30;79.80;;;;;;4738517;30;20029;-81
2022/02/22 11:21:12;;;;;;;3.45;1.17;;;10.30;79.70;;;;;;4725153;30;20032;-81
2022/02/22 11:23:38;;;;;;;4.93;1.38;;;10.30;77.30;;;;;;4719468;30;20034;-81
2022/02/22 11:26:07;;;;;;;7.88;1.50;;;10.20;77.50;;;;;;4739387;30;20257;-81
2022/02/22 11:28:36;;;;;;;2.42;0.88;;;10.20;77.30;;;;;;4732416;30;20037;-80
2022/02/22 11:31:10;;;;;;;4.25;1.50;;;10.20;77.20;;;;;;4711087;30;20048;-80
2022/02/22 11:33:48;;;;;;;3.05;1.08;;;10.10;75.90;;;;;;4682709;30;20268;-81
2022/02/22 11:36:35;;;;;;;4.72;1.40;;;10.20;76.80;;;;;;4710931;30;20117;-81
2022/02/22 11:39:04;;;;;;;7.18;1.40;;;10.20;75.50;;;;;;4739376;30;20340;-81
2022/02/22 11:41:40;;;;;;;3.70;1.23;;;10.20;75.00;;;;;;4728079;30;20056;-80
2022/02/22 11:44:19;;;;;;;7.65;1.58;;;10.20;73.70;;;;;;4713413;30;20313;-81
2022/02/22 11:46:54;;;;;;;4.65;1.60;;;10.30;72.70;;;;;;4707968;30;20223;-81
2022/02/22 11:49:21;;;;;;;7.07;1.20;;;10.20;72.40;;;;;;4722067;30;20064;-82
2022/02/22 11:51:53;;;;;;;4.18;1.35;;;10.30;72.30;;;;;;4716602;30;20080;-82
2022/02/22 11:54:26;;;;;;;4.68;1.38;;;10.40;71.70;;;;;;4734251;30;20038;-81
2022/02/22 11:57:17;;;;;;;5.32;1.67;;;10.50;69.70;;;;;;4711891;30;20069;-81
2022/02/22 11:59:59;;;;;;;5.95;1.55;;;10.60;67.90;;;;;;4727143;30;20042;-82
2022/02/22 12:02:34;;;;;;;4.63;1.40;;;10.60;66.60;;;;;;4721663;30;20044;-82
2022/02/22 12:05:02;;;;;;;5.63;1.70;;;10.60;65.20;;;;;;4712969;30;20033;-81
2022/02/22 12:07:34;;;;;;;7.20;2.00;;;10.50;64.40;;;;;;4727758;30;20075;-82
2022/02/22 12:10:07;;;;;;;8.70;2.17;;;10.50;59.90;;;;;;4727515;30;20044;-81
2022/02/22 12:12:33;;;;;;;5.78;1.50;;;10.60;60.00;;;;;;4717044;30;20040;-82
2022/02/22 12:14:59;;;;;;;7.95;1.60;;;10.80;58.10;;;;;;4712859;30;20037;-82
2022/02/22 12:17:26;;;;;;;10.07;1.40;;;10.70;56.00;;;;;;4698421;30;20084;-81
2022/02/22 12:19:53;;;;;;;7.72;1.40;;;10.70;55.20;;;;;;4698470;30;20028;-81
2022/02/22 12:22:24;;;;;;;4.00;1.67;;;10.70;54.30;;;;;;4713021;30;20044;-81
2022/02/22 12:25:05;;;;;;;5.60;1.23;;;10.60;53.90;;;;;;4727056;30;20033;-81
2022/02/22 12:27:33;;;;;;;8.30;1.73;;;10.60;53.90;;;;;;4725274;30;20044;-82
2022/02/22 12:29:59;;;;;;;5.18;1.38;;;10.70;55.00;;;;;;4723546;30;20240;-81
2022/02/22 12:32:35;;;;;;;8.13;1.67;;;10.80;53.70;;;;;;4698549;30;20117;-82
2022/02/22 12:35:06;;;;;;;10.23;1.75;;;10.90;53.50;;;;;;4726833;30;20048;-82
2022/02/22 12:37:42;;;;;;;6.38;1.80;;;11.00;54.00;;;;;;4726857;30;20041;-80
2022/02/22 12:40:10;;;;;;;4.20;1.43;;;11.20;54.00;;;;;;4710052;30;20053;-81
2022/02/22 12:42:36;;;;;;;13.10;2.00;;;11.20;54.00;;;;;;4710100;30;20116;-82
2022/02/22 12:45:15;;;;;;;12.32;2.05;;;11.00;53.40;;;;;;4730639;30;20038;-82
2022/02/22 12:47:40;;;;;;;8.02;2.17;;;10.90;53.30;;;;;;4714402;30;20210;-82
2022/02/22 12:50:07;;;;;;;10.02;2.50;;;10.90;54.20;;;;;;4673074;30;20044;-82
2022/02/22 12:52:32;;;;;;;10.60;1.67;;;11.00;54.10;;;;;;4707773;30;20080;-82
2022/02/22 12:55:09;;;;;;;7.78;2.15;;;11.20;54.40;;;;;;4682371;30;20045;-82
2022/02/22 12:57:35;;;;;;;8.43;1.90;;;11.30;54.60;;;;;;4712671;30;20099;-82
2022/02/22 13:00:04;;;;;;;5.18;1.98;;;11.30;53.70;;;;;;4697465;30;20041;-82
2022/02/22 13:02:30;;;;;;;11.45;2.15;;;11.20;54.40;;;;;;4726508;30;20330;-82
2022/02/22 13:22:58;;;;;;;6.38;1.95;;;10.10;57.80;;;;;;6367957;21;1275409;-82
2022/02/22 13:25:24;;;;;;;8.40;2.50;;;9.80;66.90;;;;;;6393366;22;20371;-82
2022/02/22 13:27:50;;;;;;;8.82;1.50;;;9.90;66.10;;;;;;6367743;22;20312;-82
2022/02/22 13:30:21;;;;;;;7.88;2.00;;;9.90;65.50;;;;;;6367456;22;20012;-82
2022/02/22 13:32:49;;;;;;;5.88;1.42;;;9.90;64.90;;;;;;6394014;22;20051;-82
2022/02/22 13:35:23;;;;;;;10.32;1.80;;;9.80;65.50;;;;;;6342133;22;20052;-82
2022/02/22 13:37:48;;;;;;;7.43;1.45;;;9.70;63.40;;;;;;6367370;22;19998;-83
2022/02/22 13:40:20;;;;;;;7.55;1.92;;;9.80;63.50;;;;;;6366497;22;20035;-82
2022/02/22 13:42:59;;;;;;;5.88;1.77;;;9.80;63.00;;;;;;6367994;22;19998;-82
2022/02/22 13:45:29;;;;;;;8.70;1.95;;;9.90;61.50;;;;;;6367547;22;20010;-82
2022/02/22 13:48:04;;;;;;;6.22;1.58;;;10.00;61.80;;;;;;6423519;22;19993;-82
2022/02/22 13:50:30;;;;;;;6.38;1.40;;;10.00;61.00;;;;;;6368174;22;20012;-82
2022/02/22 13:53:03;;;;;;;7.20;1.48;;;10.10;61.20;;;;;;6342186;22;20013;-82
2022/02/22 13:55:32;;;;;;;7.13;1.48;;;10.30;60.50;;;;;;6394615;22;20057;-82
2022/02/22 13:58:03;;;;;;;10.68;1.90;;;10.40;59.70;;;;;;6367820;22;20004;-83
2022/02/22 14:00:30;;;;;;;8.63;1.60;;;10.40;60.10;;;;;;6367760;22;20005;-82
2022/02/22 14:03:03;;;;;;;8.32;2.15;;;10.30;59.10;;;;;;6394404;22;20002;-81
2022/02/22 14:05:30;;;;;;;11.07;2.05;;;10.40;59.00;;;;;;6366946;22;20043;-81
2022/02/22 14:07:56;;;;;;;11.13;2.40;;;10.20;58.70;;;;;;6367216;22;20006;-81
2022/02/22 14:10:23;;;;;;;5.00;1.70;;;10.10;59.40;;;;;;6368162;22;20046;-82
2022/02/22 14:12:49;;;;;;;9.35;2.22;;;10.10;58.90;;;;;;6367872;22;20004;-81
2022/02/22 14:15:16;;;;;;;6.45;1.98;;;10.00;58.90;;;;;;6367367;22;20055;-82
2022/02/22 14:17:42;;;;;;;7.35;1.90;;;10.00;58.70;;;;;;6341721;22;20009;-82
2022/02/22 14:20:09;;;;;;;8.05;2.10;;;9.90;58.50;;;;;;6393943;22;19997;-82
2022/02/22 14:22:35;;;;;;;10.65;2.50;;;10.00;58.50;;;;;;6359340;22;20010;-82
2022/02/22 14:25:02;;;;;;;6.50;1.75;;;10.00;58.10;;;;;;6355341;22;20027;-82
2022/02/22 14:27:28;;;;;;;8.75;2.20;;;10.00;57.60;;;;;;6354994;22;19998;-81
2022/02/22 14:29:53;;;;;;;11.05;2.17;;;9.90;56.50;;;;;;6328907;22;20022;-82
2022/02/22 14:32:19;;;;;;;6.75;1.85;;;9.80;55.20;;;;;;6329240;22;20018;-82
2022/02/22 14:34:45;;;;;;;7.35;2.22;;;9.80;56.10;;;;;;6303502;22;20139;-82
2022/02/22 14:37:11;;;;;;;12.93;2.72;;;9.80;54.90;;;;;;6353947;22;20244;-82
2022/02/22 14:39:37;;;;;;;7.68;2.50;;;9.90;55.40;;;;;;6303225;22;20059;-82
2022/02/22 14:42:04;;;;;;;5.80;2.08;;;9.90;54.40;;;;;;6303801;22;20073;-82
2022/02/22 14:44:30;;;;;;;9.10;2.17;;;10.00;53.40;;;;;;6354764;22;20010;-82
2022/02/22 14:46:56;;;;;;;9.60;2.25;;;10.10;52.60;;;;;;6354941;22;20010;-82
2022/02/22 14:49:22;;;;;;;6.85;1.92;;;10.30;53.40;;;;;;6302926;22;20009;-82
2022/02/22 14:51:48;;;;;;;8.40;2.10;;;10.40;52.50;;;;;;6354985;22;20228;-82
2022/02/22 14:54:14;;;;;;;7.60;2.70;;;10.40;52.90;;;;;;6355078;22;20211;-82
2022/02/22 14:56:43;;;;;;;6.70;3.10;;;10.40;52.60;;;;;;6381201;22;19994;-82
2022/02/22 14:59:11;;;;;;;4.82;2.08;;;10.50;51.80;;;;;;6354672;22;20182;-82
2022/02/22 15:01:37;;;;;;;;;;;10.40;51.40;;;;;;6381908;22;20010;-82
2022/02/22 15:04:03;;;;;;;18.67;2.27;;;10.40;52.00;;;;;;6381977;22;19902;-82
2022/02/22 15:06:29;;;;;;;12.55;3.05;;;10.40;51.70;;;;;;6355102;22;19998;-82
2022/02/22 15:08:55;;;;;;;8.85;2.15;;;10.30;51.50;;;;;;6355756;22;20240;-82
2022/02/22 15:11:23;;;;;;;11.55;2.08;;;10.20;51.80;;;;;;6354587;22;20063;-81
2022/02/22 15:13:49;;;;;;;10.98;2.95;;;10.20;51.80;;;;;;6379507;22;20047;-82
2022/02/22 15:16:15;;;;;;;6.72;2.30;;;10.10;52.20;;;;;;6381222;22;20062;-82
2022/02/22 15:18:42;;;;;;;11.32;2.08;;;10.00;52.30;;;;;;6381353;22;20006;-81
2022/02/22 15:21:11;;;;;;;13.13;2.60;;;9.90;51.80;;;;;;6304618;22;20324;-82
2022/02/22 15:23:38;;;;;;;7.13;1.80;;;9.90;52.30;;;;;;6328964;22;20007;-82
2022/02/22 15:26:05;;;;;;;8.40;2.63;;;9.90;52.40;;;;;;6355207;22;20006;-82
2022/02/22 15:28:32;;;;;;;9.02;2.55;;;9.90;52.00;;;;;;6328864;22;20014;-83
2022/02/22 15:30:59;;;;;;;12.15;2.80;;;9.90;52.30;;;;;;6354798;22;20013;-83
2022/02/22 15:33:29;;;;;;;17.65;2.42;;;9.90;52.30;;;;;;6355727;22;20005;-83
2022/02/22 15:35:56;;;;;;;6.97;2.53;;;9.90;52.60;;;;;;6303497;22;20006;-83
2022/02/22 15:38:22;;;;;;;12.25;2.20;;;9.90;53.20;;;;;;6329256;22;20002;-82
2022/02/22 15:40:48;;;;;;;9.10;3.05;;;9.90;52.80;;;;;;6328397;22;20010;-82
2022/02/22 15:43:15;;;;;;;11.15;1.95;;;9.80;52.70;;;;;;6355967;22;20060;-82
2022/02/22 15:45:41;;;;;;;11.70;3.42;;;9.90;53.30;;;;;;6304309;22;20070;-82
2022/02/22 15:48:07;;;;;;;10.60;1.98;;;9.90;53.20;;;;;;6355649;22;20010;-82
2022/02/22 15:50:35;;;;;;;11.02;2.00;;;9.90;53.40;;;;;;6354468;22;20014;-82
2022/02/22 15:53:03;;;;;;;11.77;2.53;;;9.80;53.50;;;;;;6355086;22;20171;-82
2022/02/22 15:55:30;;;;;;;12.23;2.22;;;9.80;53.70;;;;;;6330239;22;20053;-82
2022/02/22 15:57:56;;;;;;;9.48;3.13;;;9.70;53.80;;;;;;6355262;22;20039;-81
2022/02/22 16:00:21;;;;;;;8.23;2.28;;;9.70;54.40;;;;;;6330893;22;20005;-82
2022/02/22 16:02:48;;;;;;;7.72;2.30;;;9.60;55.40;;;;;;6356933;22;20078;-82
2022/02/22 16:05:14;;;;;;;9.83;2.87;;;9.60;55.60;;;;;;6306007;22;20033;-83
2022/02/22 16:07:40;;;;;;;11.57;2.80;;;9.50;56.30;;;;;;6332015;22;20022;-81
2022/02/22 16:10:05;;;;;;;7.97;1.83;;;9.40;57.60;;;;;;6331649;22;20013;-82
2022/02/22 16:12:33;;;;;;;8.85;1.95;;;9.40;57.10;;;;;;6357278;22;20013;-82
2022/02/22 16:14:59;;;;;;;11.23;2.33;;;9.40;57.20;;;;;;6383304;22;20005;-81
2022/02/22 16:17:25;;;;;;;11.05;2.17;;;9.30;57.50;;;;;;6356677;22;20006;-82
2022/02/22 16:19:52;;;;;;;18.33;2.20;;;9.20;58.50;;;;;;6330142;22;20018;-81
2022/02/22 16:22:17;;;;;;;10.27;2.30;;;9.20;58.30;;;;;;6372813;22;20018;-81
2022/02/22 16:24:44;;;;;;;10.05;2.08;;;9.20;58.60;;;;;;6381453;22;20053;-81
2022/02/22 16:27:09;;;;;;;8.45;2.33;;;9.20;59.20;;;;;;6354477;22;20032;-81
2022/02/22 16:29:35;;;;;;;7.13;2.08;;;9.20;59.30;;;;;;6380334;22;20269;-82
2022/02/22 16:32:05;;;;;;;11.35;2.22;;;9.10;59.70;;;;;;6328038;22;20062;-81
2022/02/22 16:34:31;;;;;;;9.75;2.15;;;9.10;59.80;;;;;;6380557;22;19999;-81
2022/02/22 16:36:57;;;;;;;11.80;2.55;;;9.10;60.10;;;;;;6353886;22;20013;-81
2022/02/22 16:39:26;;;;;;;11.98;1.95;;;9.20;60.30;;;;;;6302041;22;20297;-81
2022/02/22 16:41:52;;;;;;;18.50;2.60;;;9.20;60.30;;;;;;6353938;22;20010;-81
2022/02/22 16:44:18;;;;;;;9.82;2.17;;;9.20;60.40;;;;;;6353399;22;20081;-81
2022/02/22 16:46:44;;;;;;;10.98;2.25;;;9.20;60.50;;;;;;6327560;22;20363;-82
2022/02/22 16:49:11;;;;;;;11.48;2.42;;;9.20;60.90;;;;;;6302125;22;20018;-82
2022/02/22 16:51:37;;;;;;;10.70;2.50;;;9.20;60.70;;;;;;6382019;22;20044;-82
2022/02/22 16:54:03;;;;;;;6.88;2.03;;;9.10;60.30;;;;;;6380647;22;20014;-82
2022/02/22 16:56:29;;;;;;;10.60;2.42;;;9.10;60.60;;;;;;6380396;22;20002;-82
2022/02/22 16:58:55;;;;;;;10.68;2.67;;;9.10;60.60;;;;;;6353283;22;20009;-82